Flight Track Log - Related Links

Times and Time Zones

All times are in EDT time to prevent confusion due to time zone crossing. See the RPA3392 flight status page for this flight to view local times or setup timezone preferences in your user account.

Time Position Orientation Groundspeed Altitude Reporting Facility
EDT Latitude Longitude Course Direction KTS MPH feet Rate Location/Type
Tue 10:37:29 PM 38.8833 -77.0667 322° Northwest 175 201 1,700  Level Potomac TRACON
Tue 10:38:29 PM 38.9333 -77.1167 322° Northwest 272 313 3,700 2,850 Climbing Potomac TRACON
Tue 10:39:29 PM 39.0000 -77.1833 322° Northwest 313 360 7,400 2,650 Climbing Potomac TRACON
Tue 10:40:29 PM 39.0500 -77.1167 46° Northeast 277 319 9,000 1,379 Climbing Potomac TRACON
Tue 10:42:10 PM 38.9886 -76.9964 123° Southeast 278 320 11,100 1,811 Climbing Washington Center
Tue 10:43:08 PM 38.9897 -76.9028 89° East 251 289 13,800 2,949 Climbing Washington Center
Tue 10:44:08 PM 39.0156 -76.8019 72° East 263 303 16,900 2,390 Climbing Washington Center
Tue 10:45:11 PM 39.0417 -76.6953 72° East 285 328 18,700 1,033 Climbing Washington Center
Tue 10:46:10 PM 39.0678 -76.5728 75° East 318 366 19,000 1,100 Climbing Washington Center
Tue 10:47:11 PM 39.0958 -76.4556 73° East 340 391 20,900 2,034 Climbing Washington Center
Tue 10:48:08 PM 39.0964 -76.3458 90° East 326 375 23,000 1,068 Climbing Washington Center
Tue 10:49:09 PM 39.1014 -76.2389 87° East 313 360 23,000  Level Washington Center
Tue 10:50:08 PM 39.1417 -76.0947 70° East 366 421 23,000  Level Washington Center
Tue 10:51:11 PM 39.1711 -75.9636 74° East 366 421 23,000 -49 Level Washington Center
Tue 10:52:10 PM 39.2217 -75.8433 61° Northeast 371 427 22,900  Descending Washington Center
Tue 10:53:08 PM 39.2967 -75.7472 45° Northeast 370 426 23,000 252 Climbing Washington Center
Tue 10:54:09 PM 39.3697 -75.6533 45° Northeast 370 426 23,400 992 Climbing Washington Center
Tue 10:55:09 PM 39.4469 -75.5539 45° Northeast 365 420 25,000 505 Climbing Washington Center
Tue 10:57:19 PM 39.6014 -75.3514 45° Northeast 378 435 25,000  Level New Center
Tue 10:58:17 PM 39.6761 -75.2511 46° Northeast 378 435 25,000  Level New Center
Tue 10:59:17 PM 39.7556 -75.1344 48° Northeast 389 448 25,000  Level New Center
Tue 11:00:17 PM 39.8303 -75.0283 47° Northeast 389 448 25,000  Level New Center
Tue 11:01:18 PM 39.9031 -74.9219 48° Northeast 389 448 25,000  Level New Center
Tue 11:02:19 PM 39.9597 -74.8439 47° Northeast 389 448 25,000  Level New Center
Tue 11:03:19 PM 40.0472 -74.7269 46° Northeast 389 448 25,000  Level New Center
Tue 11:04:16 PM 40.1194 -74.6200 49° Northeast 389 448 25,000  Level New Center
Tue 11:05:17 PM 40.1917 -74.5153 48° Northeast 389 448 25,000  Level New Center
Tue 11:06:17 PM 40.2869 -74.4061 41° Northeast 394 453 25,000  Level New Center
Tue 11:07:18 PM 40.3750 -74.3128 39° Northeast 394 453 25,000  Level New Center
Tue 11:09:27 PM 40.5625 -74.1064 40° Northeast 397 457 25,000  Level Boston Center
Tue 11:10:27 PM 40.6428 -74.0264 37° Northeast 397 457 25,000 -200 Level Boston Center
Tue 11:11:27 PM 40.7275 -73.9328 40° Northeast 397 457 24,600 -500 Descending Boston Center
Tue 11:12:27 PM 40.8119 -73.8386 40° Northeast 397 457 24,000 -300 Descending Boston Center
Tue 11:13:27 PM 40.8944 -73.7389 42° Northeast 397 457 24,000 -100 Level Boston Center
Tue 11:14:27 PM 40.9956 -73.6444 35° Northeast 397 457 23,800 -500 Descending Boston Center
Tue 11:15:27 PM 41.0956 -73.6436 360° North 376 433 23,000 -700 Descending Boston Center
Tue 11:16:27 PM 41.2081 -73.6542 356° North 387 445 22,400 -1,000 Descending Boston Center
Tue 11:17:27 PM 41.3206 -73.6644 356° North 387 445 21,000 -1,200 Descending Boston Center
Tue 11:18:27 PM 41.4267 -73.6747 356° North 387 445 20,000 -500 Descending Boston Center
Tue 11:19:27 PM 41.5411 -73.6881 355° North 387 445 20,000  Level Boston Center
Tue 11:20:27 PM 41.6494 -73.6986 356° North 381 438 20,000 -682 Level Boston Center
Tue 11:21:39 PM 41.7658 -73.7092 356° North 387 445 18,500 -1,404 Descending Boston Center
Tue 11:22:01 PM 41.8139 -73.7131 357° North 377 434 17,800 -1,900 Descending Boston Center
Tue 11:22:39 PM 41.8783 -73.7200 355° North 375 432 16,600 -2,000 Descending Boston Center
Tue 11:22:55 PM 41.9056 -73.7206 359° North 364 419 16,000 -2,000 Descending Boston Center
Tue 11:23:39 PM 41.9658 -73.7300 353° North 362 417 14,600 -2,066 Descending Boston Center
Tue 11:23:56 PM 42.0056 -73.7281 North 354 407 13,900 -1,600 Descending Boston Center
Tue 11:24:39 PM 42.0533 -73.7375 352° North 357 411 13,000 -1,800 Descending Boston Center
Tue 11:24:56 PM 42.0992 -73.7411 357° North 341 392 12,100 -2,000 Descending Boston Center
Tue 11:25:39 PM 42.1658 -73.7397 North 341 392 11,000 -1,082 Descending Boston Center
Tue 11:25:57 PM 42.1928 -73.7514 342° North 334 384 11,000 -500 Level Boston Center
Tue 11:26:39 PM 42.2450 -73.7469 North 324 373 10,500 -1,412 Descending Boston Center
Tue 11:27:39 PM 42.3367 -73.7433 North 306 352 8,600 -1,800 Descending Boston Center
Tue 11:28:39 PM 42.4097 -73.7419 North 293 337 6,900 -1,950 Descending Boston Center
Tue 11:29:39 PM 42.4972 -73.7383 North 286 329 4,700 -1,750 Descending Boston Center
Tue 11:30:39 PM 42.5661 -73.7311 North 286 329 3,400 -1,440 Descending Boston Center
Tue 11:30:54 PM 42.5911 -73.7289 North 282 325 2,900 -1,200 Descending Boston Center
Tue 11:31:39 PM 42.6517 -73.7244 North 281 323 2,200 -885 Descending Boston Center
Tue 11:31:55 PM 42.6661 -73.7219 North 263 303 2,000 -200 Descending Boston Center
Tue 11:32:39 PM 42.7081 -73.7144 North 252 290 2,000  Level Boston Center
Tue 11:32:55 PM 42.7372 -73.7150 359° North 230 265 2,000  Level Boston Center
Tue 11:33:39 PM 42.7808 -73.7103 North 229 264 2,000  Level Boston Center
Tue 11:33:56 PM 42.7997 -73.7133 353° North 212 244 2,000  Level Boston Center
Tue 11:34:39 PM 42.8331 -73.7142 359° North 214 246 2,000 -100 Level Boston Center
Tue 11:34:56 PM 42.8283 -73.7564 261° West 162 186 1,900 -462 Descending Boston Center
Tue 11:35:57 PM 42.8194 -73.8044 256° West 139 160 1,400 -492 Descending Boston Center
Tue 11:36:58 PM 42.7861 -73.8094 186° South 105 121 900 -492 Descending Boston Center
Tue 11:38:00 PM 42.7491 -73.8020 180° South  Level Estimated
Tue 11:45:00 PM 42.7491 -73.8020 180° South  Level Estimated
Tue 11:46:00 PM 42.7491 -73.8020 180° South  Level Estimated

Login

Don't have an account? Register now (free) for customized features, flight alerts, and more!